createdAt,value
2022-10-25T00:00:00.728Z,3.80
2022-10-25T00:02:40.928Z,12.77
2022-10-25T00:05:15.437Z,10.73
2022-10-25T00:07:44.883Z,7.75
2022-10-25T00:10:14.338Z,4.05
2022-10-25T00:12:46.309Z,5.25
2022-10-25T00:15:16.068Z,3.08
2022-10-25T00:17:45.624Z,3.03
2022-10-25T00:20:15.111Z,3.42
2022-10-25T00:22:44.874Z,3.83
2022-10-25T00:25:14.058Z,4.13
2022-10-25T00:27:42.823Z,4.85
2022-10-25T00:30:12.482Z,6.03
2022-10-25T00:32:41.357Z,6.10
2022-10-25T00:35:10.471Z,3.60
2022-10-25T00:37:39.403Z,2.85
2022-10-25T00:40:08.764Z,2.63
2022-10-25T00:42:38.276Z,1.83
2022-10-25T00:45:33.308Z,2.00
2022-10-25T00:48:11.077Z,1.52
2022-10-25T00:50:50.772Z,1.73
2022-10-25T00:53:28.499Z,1.45
2022-10-25T00:56:50.989Z,1.77
2022-10-25T00:59:24.690Z,1.65
2022-10-25T01:01:57.639Z,3.20
2022-10-25T01:04:30.868Z,5.05
2022-10-25T01:07:03.166Z,4.38
2022-10-25T01:09:35.764Z,3.15
2022-10-25T01:12:12.825Z,2.30
2022-10-25T01:14:46.147Z,2.90
2022-10-25T01:17:54.474Z,2.92
2022-10-25T01:20:40.088Z,4.22
2022-10-25T01:23:28.905Z,2.35
2022-10-25T01:26:32.975Z,2.10
2022-10-25T01:29:27.832Z,2.33
2022-10-25T01:32:11.341Z,7.25
2022-10-25T01:34:51.311Z,4.57
2022-10-25T01:37:43.464Z,3.88
2022-10-25T01:40:38.611Z,13.30
2022-10-25T01:43:18.277Z,7.40
2022-10-25T01:45:49.829Z,4.38
2022-10-25T01:48:27.567Z,3.50
2022-10-25T01:50:56.485Z,6.60
2022-10-25T01:53:25.236Z,13.25
2022-10-25T01:55:59.434Z,12.38
2022-10-25T01:58:57.241Z,15.35
2022-10-25T02:01:53.902Z,8.65
2022-10-25T02:04:33.639Z,7.43
2022-10-25T02:07:39.527Z,4.78
2022-10-25T02:10:13.299Z,3.20
2022-10-25T02:12:57.569Z,3.25
2022-10-25T02:15:51.693Z,3.35
2022-10-25T02:18:25.911Z,13.40
2022-10-25T02:20:56.880Z,41.08
2022-10-25T02:23:27.542Z,20.27
2022-10-25T02:25:57.381Z,8.52
2022-10-25T02:28:29.523Z,3.10
2022-10-25T02:31:00.094Z,2.05
2022-10-25T02:33:29.926Z,2.22
2022-10-25T02:36:21.160Z,1.27
2022-10-25T02:38:51.965Z,1.30
2022-10-25T02:41:22.077Z,1.33
2022-10-25T02:43:51.160Z,1.30
2022-10-25T02:46:22.135Z,1.13
2022-10-25T02:48:51.880Z,1.35
2022-10-25T02:51:21.224Z,1.40
2022-10-25T02:53:50.122Z,1.02
2022-10-25T02:56:22.386Z,1.77
2022-10-25T02:58:53.095Z,1.77
2022-10-25T03:01:22.139Z,1.50
2022-10-25T03:03:51.730Z,1.25
2022-10-25T03:06:20.645Z,1.58
2022-10-25T03:08:49.584Z,1.33
2022-10-25T03:11:18.957Z,1.17
2022-10-25T03:13:48.057Z,1.83
2022-10-25T03:16:20.499Z,1.80
2022-10-25T03:18:49.464Z,4.00
2022-10-25T03:21:18.350Z,6.63
2022-10-25T03:23:47.283Z,7.35
2022-10-25T03:26:16.218Z,10.00
2022-10-25T03:28:45.058Z,8.73
2022-10-25T03:31:17.786Z,12.15
2022-10-25T03:33:46.593Z,6.53
2022-10-25T03:36:16.364Z,4.93
2022-10-25T03:38:45.362Z,5.25
2022-10-25T03:41:14.282Z,4.20
2022-10-25T03:43:46.398Z,4.05
2022-10-25T03:46:15.328Z,4.25
2022-10-25T03:48:44.107Z,5.72
2022-10-25T03:51:13.064Z,5.70
2022-10-25T03:53:41.786Z,6.05
2022-10-25T03:56:10.580Z,4.43
2022-10-25T03:58:39.342Z,5.43
2022-10-25T04:01:10.801Z,9.27
2022-10-25T04:03:40.093Z,11.07
2022-10-25T04:06:09.117Z,8.40
2022-10-25T04:08:39.578Z,6.78
2022-10-25T04:11:08.575Z,6.07
2022-10-25T04:13:37.781Z,3.60
2022-10-25T04:16:10.158Z,3.60
2022-10-25T04:18:39.183Z,1.60
2022-10-25T04:21:07.896Z,2.03
2022-10-25T04:23:36.816Z,1.83
2022-10-25T04:26:05.597Z,4.18
2022-10-25T04:28:34.465Z,4.68
2022-10-25T04:31:05.091Z,5.57
2022-10-25T04:33:33.983Z,3.63
2022-10-25T04:36:03.645Z,5.47
2022-10-25T04:38:32.442Z,7.38
2022-10-25T04:41:03.148Z,7.07
2022-10-25T04:43:32.020Z,4.03
2022-10-25T04:46:03.236Z,4.13
2022-10-25T04:48:32.279Z,4.78
2022-10-25T04:51:04.759Z,11.38
2022-10-25T04:53:33.757Z,18.23
2022-10-25T04:56:05.444Z,11.80
2022-10-25T04:58:35.301Z,5.30
2022-10-25T05:01:15.935Z,7.15
2022-10-25T05:03:45.110Z,2.60
2022-10-25T05:06:17.383Z,1.88
2022-10-25T05:08:48.952Z,2.22
2022-10-25T05:11:21.153Z,1.60
2022-10-25T05:13:50.483Z,1.73
2022-10-25T05:16:25.364Z,2.28
2022-10-25T05:18:56.581Z,1.85
2022-10-25T05:21:29.255Z,1.48
2022-10-25T05:24:02.423Z,2.03
2022-10-25T05:26:32.454Z,1.60
2022-10-25T05:29:04.584Z,2.00
2022-10-25T05:31:38.291Z,1.85
2022-10-25T05:34:11.333Z,1.48
2022-10-25T05:36:40.445Z,1.90
2022-10-25T05:39:12.120Z,1.90
2022-10-25T05:41:41.244Z,2.55
2022-10-25T05:44:10.402Z,3.58
2022-10-25T05:58:31.791Z,1.90
2022-10-25T06:01:06.914Z,1.70
2022-10-25T06:03:39.728Z,2.17
2022-10-25T06:06:13.064Z,1.40
2022-10-25T06:08:42.039Z,1.95
2022-10-25T06:11:14.252Z,2.20
2022-10-25T06:13:43.294Z,2.85
2022-10-25T06:16:14.630Z,2.88
2022-10-25T06:18:44.126Z,2.10
2022-10-25T06:21:18.147Z,2.22
2022-10-25T06:23:48.181Z,2.53
2022-10-25T06:26:28.302Z,2.15
2022-10-25T06:28:59.488Z,2.25
2022-10-25T06:31:30.778Z,1.50
2022-10-25T06:34:03.652Z,1.60
2022-10-25T06:36:32.637Z,1.90
2022-10-25T06:39:05.873Z,2.28
2022-10-25T06:41:39.402Z,2.05
2022-10-25T06:44:08.765Z,1.92
2022-10-25T06:49:29.388Z,1.73
2022-10-25T06:51:58.247Z,2.05
2022-10-25T06:54:28.132Z,2.30
2022-10-25T06:56:56.787Z,2.55
2022-10-25T06:59:25.699Z,2.33
2022-10-25T07:01:55.955Z,2.15
2022-10-25T07:04:24.706Z,2.65
2022-10-25T07:06:55.312Z,1.95
2022-10-25T07:09:25.716Z,2.30
2022-10-25T07:11:54.421Z,1.83
2022-10-25T07:14:23.065Z,1.95
2022-10-25T07:16:51.815Z,1.85
2022-10-25T07:19:20.438Z,2.75
2022-10-25T07:21:49.184Z,1.92
2022-10-25T07:24:18.857Z,3.35
2022-10-25T07:26:47.598Z,2.15
2022-10-25T07:29:16.245Z,2.42
2022-10-25T07:31:45.707Z,1.85
2022-10-25T07:34:15.871Z,2.72
2022-10-25T07:36:44.919Z,2.55
2022-10-25T07:39:14.020Z,1.90
2022-10-25T07:41:42.789Z,1.98
2022-10-25T07:44:15.975Z,3.22
2022-10-25T07:46:46.312Z,2.15
2022-10-25T07:49:15.249Z,2.10
2022-10-25T07:51:44.380Z,2.47
2022-10-25T07:54:13.099Z,2.55
2022-10-25T07:56:41.726Z,1.98
2022-10-25T07:59:10.483Z,2.42
2022-10-25T08:01:39.237Z,2.33
2022-10-25T08:04:08.047Z,3.13
2022-10-25T08:06:37.105Z,2.35
2022-10-25T08:09:14.910Z,2.28
2022-10-25T08:11:49.143Z,1.83
2022-10-25T08:14:17.852Z,1.98
2022-10-25T08:16:46.773Z,2.38
2022-10-25T08:19:15.394Z,2.17
2022-10-25T08:21:44.282Z,2.03
2022-10-25T08:24:13.093Z,1.80
2022-10-25T08:26:42.238Z,1.88
2022-10-25T08:29:11.071Z,2.28
2022-10-25T08:31:39.954Z,1.90
2022-10-25T08:36:37.953Z,2.08
2022-10-25T08:39:06.670Z,2.50
2022-10-25T08:41:56.953Z,2.38
2022-10-25T08:44:31.791Z,1.90
2022-10-25T08:47:06.834Z,2.10
2022-10-25T08:50:01.640Z,1.90
2022-10-25T08:52:45.166Z,2.47
2022-10-25T08:55:58.810Z,2.50
2022-10-25T08:58:37.503Z,1.92
2022-10-25T09:01:15.577Z,2.15
2022-10-25T09:03:44.652Z,1.88
2022-10-25T09:06:41.197Z,2.42
2022-10-25T09:09:16.974Z,2.20
2022-10-25T09:12:15.763Z,2.17
2022-10-25T09:15:07.775Z,2.75
2022-10-25T09:17:52.265Z,2.03
2022-10-25T09:20:28.026Z,1.80
2022-10-25T09:23:05.365Z,2.67
2022-10-25T09:25:56.957Z,2.30
2022-10-25T09:28:58.892Z,2.65
2022-10-25T09:31:27.952Z,2.22
2022-10-25T09:34:04.706Z,1.80
2022-10-25T09:36:46.278Z,2.47
2022-10-25T09:39:24.091Z,2.05
2022-10-25T09:41:57.062Z,2.00
2022-10-25T09:44:49.712Z,2.40
2022-10-25T09:47:34.803Z,1.83
2022-10-25T09:50:08.400Z,2.88
2022-10-25T09:53:11.852Z,2.47
2022-10-25T09:55:52.373Z,2.90
2022-10-25T09:58:36.501Z,2.00
2022-10-25T10:01:27.647Z,2.20
2022-10-25T10:04:07.103Z,2.63
2022-10-25T10:06:40.117Z,1.77
2022-10-25T10:09:14.389Z,2.05
2022-10-25T10:11:43.574Z,2.30
2022-10-25T10:14:16.200Z,2.53
2022-10-25T10:16:54.582Z,2.20
2022-10-25T10:19:30.621Z,2.60
2022-10-25T10:22:18.491Z,1.95
2022-10-25T10:24:50.227Z,2.45
2022-10-25T10:27:22.148Z,2.42
2022-10-25T10:30:03.091Z,2.15
2022-10-25T10:35:28.107Z,2.40
2022-10-25T10:38:27.906Z,2.20
2022-10-25T10:41:15.297Z,2.30
2022-10-25T10:43:44.183Z,2.60
2022-10-25T10:46:17.226Z,2.47
2022-10-25T10:48:53.596Z,2.40
2022-10-25T10:51:50.429Z,3.20
2022-10-25T10:54:32.110Z,2.33
2022-10-25T10:57:05.244Z,2.95
2022-10-25T10:59:40.004Z,1.90
2022-10-25T11:02:33.363Z,2.60
2022-10-25T11:05:03.253Z,2.25
2022-10-25T11:07:35.128Z,2.40
2022-10-25T11:10:16.688Z,2.42
2022-10-25T11:12:45.786Z,1.95
2022-10-25T11:15:15.310Z,1.88
2022-10-25T11:17:58.996Z,3.17
2022-10-25T11:20:46.490Z,1.88
2022-10-25T11:23:31.112Z,2.75
2022-10-25T11:26:40.310Z,2.20
2022-10-25T11:29:58.637Z,2.72
2022-10-25T11:35:26.534Z,2.38
2022-10-25T11:38:15.007Z,1.80
2022-10-25T11:41:25.292Z,2.05
2022-10-25T11:44:21.786Z,2.78
2022-10-25T11:46:53.207Z,2.25
2022-10-25T11:49:45.140Z,2.03
2022-10-25T11:52:22.738Z,2.72
2022-10-25T11:54:58.176Z,1.88
2022-10-25T11:57:40.284Z,2.17
2022-10-25T12:00:20.427Z,2.00
2022-10-25T12:03:16.860Z,2.17
2022-10-25T12:06:03.754Z,1.90
2022-10-25T12:08:59.099Z,1.80
2022-10-25T12:11:32.145Z,2.15
2022-10-25T12:14:06.521Z,2.20
2022-10-25T12:16:37.414Z,2.10
2022-10-25T12:19:09.823Z,2.03
2022-10-25T12:21:53.425Z,1.75
2022-10-25T12:24:27.926Z,2.20
2022-10-25T12:26:57.547Z,2.10
2022-10-25T12:29:36.986Z,1.85
2022-10-25T12:32:21.176Z,2.08
2022-10-25T12:34:54.286Z,1.85
2022-10-25T12:37:30.534Z,1.75
2022-10-25T12:39:59.524Z,1.92
2022-10-25T12:42:32.024Z,1.85
2022-10-25T12:45:25.712Z,2.05
2022-10-25T12:48:31.867Z,1.70
2022-10-25T12:51:30.076Z,1.50
2022-10-25T12:54:04.877Z,2.55
2022-10-25T12:57:08.955Z,1.88
2022-10-25T12:59:51.173Z,1.88
2022-10-25T13:02:22.629Z,2.72
2022-10-25T13:04:57.306Z,1.60
2022-10-25T13:07:26.831Z,2.15
2022-10-25T13:10:07.897Z,1.60
2022-10-25T13:12:36.854Z,1.63
2022-10-25T13:15:05.901Z,1.88
2022-10-25T13:17:45.252Z,1.67
2022-10-25T13:20:20.266Z,1.63
2022-10-25T13:22:49.309Z,1.95
2022-10-25T13:25:33.411Z,1.67
2022-10-25T13:28:17.515Z,2.17
2022-10-25T13:30:46.539Z,1.58
2022-10-25T13:33:24.695Z,2.58
2022-10-25T13:35:53.343Z,1.98
2022-10-25T13:38:38.879Z,1.92
2022-10-25T13:41:12.151Z,1.95
2022-10-25T13:44:07.306Z,2.20
2022-10-25T13:46:41.882Z,1.50
2022-10-25T13:49:28.963Z,1.77
2022-10-25T13:52:28.826Z,1.55
2022-10-25T13:54:58.447Z,1.60
2022-10-25T13:57:49.863Z,1.65
2022-10-25T14:00:27.135Z,1.80
2022-10-25T14:03:10.848Z,1.35
2022-10-25T14:05:55.587Z,1.77
2022-10-25T14:08:41.781Z,1.50
2022-10-25T14:11:19.963Z,1.83
2022-10-25T14:14:13.252Z,2.00
2022-10-25T14:17:04.950Z,2.88
2022-10-25T14:19:38.858Z,1.40
2022-10-25T14:22:33.066Z,1.70
2022-10-25T14:25:08.946Z,1.33
2022-10-25T14:27:38.333Z,1.93
2022-10-25T14:30:40.978Z,1.73
2022-10-25T14:33:23.969Z,1.58
2022-10-25T14:35:57.143Z,1.83
2022-10-25T14:38:28.885Z,1.52
2022-10-25T14:41:00.311Z,1.38
2022-10-25T14:43:37.010Z,1.45
2022-10-25T14:46:16.269Z,1.65
2022-10-25T14:48:47.737Z,1.40
2022-10-25T14:51:20.314Z,1.80
2022-10-25T14:54:03.577Z,1.70
2022-10-25T14:56:41.320Z,1.75
2022-10-25T14:59:21.863Z,1.48
2022-10-25T15:01:56.920Z,1.98
2022-10-25T15:04:40.458Z,1.60
2022-10-25T15:07:25.733Z,1.00
2022-10-25T15:09:56.508Z,2.65
2022-10-25T15:12:27.525Z,1.52
2022-10-25T15:14:58.797Z,1.40
2022-10-25T15:17:30.131Z,1.83
2022-10-25T15:20:05.923Z,1.30
2022-10-25T15:22:44.235Z,1.25
2022-10-25T15:25:29.752Z,1.20
2022-10-25T15:28:09.535Z,1.70
2022-10-25T15:31:05.148Z,1.10
2022-10-25T15:33:34.143Z,1.13
2022-10-25T15:36:06.125Z,1.48
2022-10-25T15:38:54.316Z,1.30
2022-10-25T15:41:26.409Z,1.10
2022-10-25T15:43:55.524Z,1.23
2022-10-25T15:46:31.802Z,1.20
2022-10-25T15:49:07.346Z,1.13
2022-10-25T15:51:40.773Z,1.55
2022-10-25T15:54:21.979Z,0.90
2022-10-25T15:56:52.583Z,1.13
2022-10-25T15:59:21.319Z,1.17
2022-10-25T16:01:53.976Z,2.03
2022-10-25T16:04:22.854Z,1.08
2022-10-25T16:06:51.553Z,1.42
2022-10-25T16:09:20.468Z,1.30
2022-10-25T16:11:54.817Z,1.20
2022-10-25T16:14:27.163Z,0.95
2022-10-25T16:16:59.198Z,1.05
2022-10-25T16:19:32.119Z,1.00
2022-10-25T16:22:00.936Z,1.08
2022-10-25T16:24:29.756Z,1.40
2022-10-25T16:26:58.412Z,1.00
2022-10-25T16:29:27.152Z,1.00
2022-10-25T16:31:56.103Z,0.90
2022-10-25T16:34:24.872Z,1.10
2022-10-25T16:36:53.611Z,0.85
2022-10-25T16:39:22.435Z,1.38
2022-10-25T16:41:51.686Z,1.00
2022-10-25T16:44:20.615Z,1.08
2022-10-25T16:46:49.548Z,1.20
2022-10-25T16:49:18.346Z,1.33
2022-10-25T16:51:47.042Z,0.95
2022-10-25T16:54:15.877Z,1.00
2022-10-25T16:56:44.565Z,0.80
2022-10-25T16:59:13.376Z,0.70
2022-10-25T17:01:44.482Z,1.10
2022-10-25T17:04:15.687Z,0.90
2022-10-25T17:06:44.532Z,1.15
2022-10-25T17:09:13.218Z,0.93
2022-10-25T17:11:41.925Z,1.13
2022-10-25T17:14:12.759Z,1.10
2022-10-25T17:16:43.599Z,0.90
2022-10-25T17:19:13.252Z,0.93
2022-10-25T17:21:41.978Z,0.90
2022-10-25T17:24:10.691Z,1.42
2022-10-25T17:26:40.103Z,1.67
2022-10-25T17:29:08.799Z,1.02
2022-10-25T17:31:37.996Z,0.85
2022-10-25T17:34:07.109Z,0.88
2022-10-25T17:36:36.103Z,0.98
2022-10-25T17:39:06.856Z,1.10
2022-10-25T17:41:36.090Z,0.80
2022-10-25T17:44:04.768Z,0.85
2022-10-25T17:46:33.558Z,0.88
2022-10-25T17:49:04.087Z,0.80
2022-10-25T17:51:34.977Z,1.10
2022-10-25T17:54:04.429Z,1.05
2022-10-25T17:56:33.124Z,0.95
2022-10-25T17:59:05.606Z,1.00
2022-10-25T18:01:37.018Z,1.10
2022-10-25T18:04:05.847Z,1.48
2022-10-25T18:06:34.533Z,1.13
2022-10-25T18:09:05.461Z,0.90
2022-10-25T18:11:34.182Z,1.13
2022-10-25T18:14:03.052Z,1.00
2022-10-25T18:16:33.226Z,0.90
2022-10-25T18:19:03.663Z,1.15
2022-10-25T18:21:33.560Z,1.00
2022-10-25T18:24:05.704Z,0.93
2022-10-25T18:26:35.438Z,1.00
2022-10-25T18:29:04.375Z,1.05
2022-10-25T18:31:33.035Z,1.15
2022-10-25T18:34:04.655Z,1.50
2022-10-25T18:36:33.796Z,0.93
2022-10-25T18:39:02.932Z,1.20
2022-10-25T18:41:34.747Z,1.25
2022-10-25T18:44:04.159Z,1.27
2022-10-25T18:46:33.461Z,0.90
2022-10-25T18:49:03.213Z,1.38
2022-10-25T18:51:32.841Z,1.05
2022-10-25T18:54:03.477Z,1.00
2022-10-25T18:56:32.467Z,1.00
2022-10-25T18:59:01.100Z,1.05
2022-10-25T19:01:33.195Z,1.45
2022-10-25T19:04:04.292Z,1.08
2022-10-25T19:06:34.383Z,1.40
2022-10-25T19:09:05.383Z,1.00
2022-10-25T19:11:35.297Z,1.23
2022-10-25T19:14:04.898Z,1.13
2022-10-25T19:16:33.621Z,1.42
2022-10-25T19:19:04.051Z,1.40
2022-10-25T19:21:32.783Z,1.20
2022-10-25T19:24:01.591Z,1.40
2022-10-25T19:26:30.468Z,1.30
2022-10-25T19:29:01.161Z,1.40
2022-10-25T19:31:30.860Z,1.25
2022-10-25T19:34:01.063Z,1.13
2022-10-25T19:36:30.882Z,1.00
2022-10-25T19:38:59.570Z,1.13
2022-10-25T19:41:30.400Z,1.20
2022-10-25T19:43:59.526Z,1.05
2022-10-25T19:46:28.213Z,1.38
2022-10-25T19:48:57.243Z,0.90
2022-10-25T19:51:25.894Z,0.90
2022-10-25T19:53:55.183Z,1.20
2022-10-25T19:56:24.909Z,1.48
2022-10-25T19:58:53.877Z,1.08
2022-10-25T20:01:25.026Z,1.02
2022-10-25T20:03:56.211Z,1.10
2022-10-25T20:06:27.865Z,1.20
2022-10-25T20:08:57.681Z,1.15
2022-10-25T20:11:27.185Z,1.20
2022-10-25T20:13:58.107Z,1.20
2022-10-25T20:16:27.580Z,1.20
2022-10-25T20:18:56.882Z,0.90
2022-10-25T20:21:28.126Z,1.17
2022-10-25T20:23:59.417Z,1.05
2022-10-25T20:26:30.887Z,1.20
2022-10-25T20:29:02.417Z,0.93
2022-10-25T20:31:33.648Z,1.08
2022-10-25T20:34:03.316Z,1.38
2022-10-25T20:36:32.306Z,1.10
2022-10-25T20:39:00.948Z,1.20
2022-10-25T20:41:31.583Z,0.90
2022-10-25T20:44:02.789Z,1.20
2022-10-25T20:46:31.879Z,1.60
2022-10-25T20:49:01.470Z,1.05
2022-10-25T20:51:30.918Z,1.27
2022-10-25T20:54:00.091Z,1.77
2022-10-25T20:56:29.935Z,1.40
2022-10-25T20:58:58.559Z,0.93
2022-10-25T21:01:27.468Z,1.00
2022-10-25T21:03:56.569Z,1.00
2022-10-25T21:06:25.443Z,1.20
2022-10-25T21:08:54.105Z,1.38
2022-10-25T21:11:22.877Z,1.00
2022-10-25T21:13:51.633Z,1.35
2022-10-25T21:16:20.327Z,1.17
2022-10-25T21:18:49.053Z,1.00
2022-10-25T21:21:20.582Z,1.10
2022-10-25T21:23:49.738Z,1.23
2022-10-25T21:26:18.432Z,1.13
2022-10-25T21:28:47.125Z,0.95
2022-10-25T21:31:17.050Z,1.17
2022-10-25T21:33:50.530Z,1.30
2022-10-25T21:36:21.397Z,1.20
2022-10-25T21:38:50.314Z,1.00
2022-10-25T21:41:27.431Z,1.08
2022-10-25T21:43:57.280Z,1.10
2022-10-25T21:46:28.378Z,1.25
2022-10-25T21:48:57.192Z,1.17
2022-10-25T21:51:25.937Z,1.08
2022-10-25T21:53:55.699Z,0.90
2022-10-25T21:56:31.400Z,0.80
2022-10-25T21:59:01.383Z,0.90
2022-10-25T22:01:31.158Z,1.00
2022-10-25T22:04:00.242Z,0.70
2022-10-25T22:06:31.916Z,0.68
2022-10-25T22:09:00.624Z,0.90
2022-10-25T22:11:35.388Z,2.75
2022-10-25T22:14:06.891Z,1.10
2022-10-25T22:16:36.264Z,1.00
2022-10-25T22:19:14.359Z,1.20
2022-10-25T22:21:44.372Z,0.88
2022-10-25T22:24:13.936Z,1.15
2022-10-25T22:26:44.506Z,0.90
2022-10-25T22:29:15.031Z,1.33
2022-10-25T22:31:43.806Z,1.10
2022-10-25T22:34:12.516Z,1.15
2022-10-25T22:36:42.767Z,1.10
2022-10-25T22:39:11.805Z,0.98
2022-10-25T22:41:41.147Z,1.00
2022-10-25T22:44:10.156Z,1.38
2022-10-25T22:46:38.824Z,1.25
2022-10-25T22:49:09.844Z,1.63
2022-10-25T22:51:39.520Z,1.20
2022-10-25T22:54:08.282Z,1.35
2022-10-25T22:56:37.283Z,1.10
2022-10-25T22:59:07.468Z,1.05
2022-10-25T23:01:38.312Z,1.48
2022-10-25T23:04:09.788Z,1.10
2022-10-25T23:06:40.942Z,0.90
2022-10-25T23:09:11.774Z,1.33
2022-10-25T23:11:42.349Z,1.33
2022-10-25T23:14:14.970Z,0.93
2022-10-25T23:16:47.362Z,1.00
2022-10-25T23:19:16.153Z,1.00
2022-10-25T23:21:44.816Z,1.15
2022-10-25T23:24:13.705Z,1.30
2022-10-25T23:26:42.477Z,1.80
2022-10-25T23:29:13.083Z,1.10
2022-10-25T23:31:41.771Z,1.15
2022-10-25T23:34:11.876Z,1.15
2022-10-25T23:36:40.603Z,0.80
2022-10-25T23:39:09.466Z,1.00
2022-10-25T23:41:38.245Z,1.20
2022-10-25T23:44:06.864Z,1.00
2022-10-25T23:46:35.657Z,1.10
2022-10-25T23:49:06.976Z,0.93
2022-10-25T23:51:35.778Z,1.00
2022-10-25T23:54:04.678Z,1.00
2022-10-25T23:56:33.717Z,0.68
2022-10-25T23:59:03.483Z,0.80
